createdAt,value
2022-11-08T00:00:00.721Z,7.07
2022-11-08T00:02:27.708Z,9.05
2022-11-08T00:04:55.166Z,10.00
2022-11-08T00:07:40.419Z,11.90
2022-11-08T00:10:26.215Z,9.00
2022-11-08T00:13:11.589Z,7.57
2022-11-08T00:15:39.045Z,8.07
2022-11-08T00:18:07.559Z,7.20
2022-11-08T00:20:34.672Z,10.38
2022-11-08T00:23:01.622Z,8.52
2022-11-08T00:25:28.455Z,8.15
2022-11-08T00:27:55.344Z,8.70
2022-11-08T00:30:22.188Z,7.70
2022-11-08T00:32:49.081Z,7.88
2022-11-08T00:35:16.034Z,10.20
2022-11-08T00:37:42.954Z,11.70
2022-11-08T00:40:10.606Z,7.07
2022-11-08T00:42:37.460Z,8.20
2022-11-08T00:45:04.821Z,11.13
2022-11-08T00:47:31.680Z,7.60
2022-11-08T00:49:58.608Z,10.80
2022-11-08T00:52:25.486Z,5.68
2022-11-08T00:54:52.295Z,7.03
2022-11-08T00:57:22.253Z,7.95
2022-11-08T00:59:51.513Z,6.97
2022-11-08T01:02:18.527Z,6.18
2022-11-08T01:04:45.415Z,7.20
2022-11-08T01:07:12.278Z,7.13
2022-11-08T01:09:39.048Z,6.43
2022-11-08T01:12:06.076Z,10.48
2022-11-08T01:14:32.909Z,7.32
2022-11-08T01:16:59.832Z,8.15
2022-11-08T01:19:26.615Z,7.53
2022-11-08T01:21:53.563Z,8.70
2022-11-08T01:24:21.295Z,6.90
2022-11-08T01:26:50.892Z,8.73
2022-11-08T01:29:17.830Z,7.90
2022-11-08T01:31:44.667Z,6.63
2022-11-08T01:34:11.548Z,8.20
2022-11-08T01:36:38.410Z,8.02
2022-11-08T01:39:05.348Z,7.45
2022-11-08T01:41:32.211Z,6.57
2022-11-08T01:44:00.600Z,6.93
2022-11-08T01:46:41.019Z,8.52
2022-11-08T01:49:30.009Z,7.95
2022-11-08T01:51:59.646Z,7.03
2022-11-08T01:54:46.327Z,9.80
2022-11-08T01:57:17.112Z,8.13
2022-11-08T01:59:47.438Z,6.90
2022-11-08T02:02:15.001Z,6.85
2022-11-08T02:04:43.316Z,6.70
2022-11-08T02:07:12.889Z,7.85
2022-11-08T02:09:42.580Z,9.07
2022-11-08T02:12:10.698Z,6.25
2022-11-08T02:14:38.057Z,8.50
2022-11-08T02:17:07.154Z,7.32
2022-11-08T02:19:43.779Z,6.57
2022-11-08T02:22:26.025Z,6.70
2022-11-08T02:24:53.086Z,6.47
2022-11-08T02:27:20.006Z,7.63
2022-11-08T02:29:46.927Z,7.25
2022-11-08T02:32:14.907Z,6.75
2022-11-08T02:34:49.319Z,7.03
2022-11-08T02:37:20.055Z,7.20
2022-11-08T02:39:47.978Z,5.25
2022-11-08T02:42:17.125Z,9.68
2022-11-08T02:44:44.176Z,6.72
2022-11-08T02:47:11.274Z,6.65
2022-11-08T02:49:38.291Z,6.38
2022-11-08T02:52:05.503Z,6.88
2022-11-08T02:54:32.359Z,7.35
2022-11-08T02:56:59.203Z,6.25
2022-11-08T02:59:26.009Z,5.93
2022-11-08T03:01:52.936Z,6.47
2022-11-08T03:04:19.840Z,5.85
2022-11-08T03:06:46.699Z,6.65
2022-11-08T03:09:13.936Z,5.35
2022-11-08T03:11:40.824Z,6.13
2022-11-08T03:14:07.731Z,7.70
2022-11-08T03:16:34.648Z,5.60
2022-11-08T03:19:01.424Z,5.82
2022-11-08T03:21:28.303Z,7.65
2022-11-08T03:23:55.166Z,5.60
2022-11-08T03:26:22.099Z,5.38
2022-11-08T03:28:48.937Z,4.68
2022-11-08T03:31:15.769Z,5.68
2022-11-08T03:33:42.568Z,6.57
2022-11-08T03:36:09.711Z,5.63
2022-11-08T03:38:36.543Z,7.97
2022-11-08T03:41:03.371Z,9.07
2022-11-08T03:43:30.195Z,5.93
2022-11-08T03:45:57.004Z,5.63
2022-11-08T03:48:23.897Z,6.00
2022-11-08T03:50:51.967Z,5.00
2022-11-08T03:53:19.166Z,4.32
2022-11-08T03:55:46.065Z,7.63
2022-11-08T03:58:13.163Z,5.38
2022-11-08T04:00:40.046Z,7.53
2022-11-08T04:03:06.838Z,6.45
2022-11-08T04:05:33.998Z,4.88
2022-11-08T04:08:02.003Z,3.67
2022-11-08T04:10:28.922Z,5.07
2022-11-08T04:13:17.668Z,5.88
2022-11-08T04:15:44.947Z,4.80
2022-11-08T04:18:30.192Z,5.82
2022-11-08T04:21:19.068Z,9.57
2022-11-08T04:23:47.262Z,4.60
2022-11-08T04:26:14.323Z,4.63
2022-11-08T04:28:42.458Z,5.72
2022-11-08T04:31:15.171Z,6.55
2022-11-08T04:33:42.629Z,4.50
2022-11-08T04:36:12.908Z,4.45
2022-11-08T04:38:40.060Z,5.68
2022-11-08T04:41:10.802Z,6.20
2022-11-08T04:43:37.891Z,3.85
2022-11-08T04:46:08.514Z,5.55
2022-11-08T04:48:35.927Z,5.22
2022-11-08T04:51:08.812Z,7.60
2022-11-08T04:53:35.941Z,5.38
2022-11-08T04:56:05.316Z,4.32
2022-11-08T04:58:41.002Z,5.28
2022-11-08T05:01:10.259Z,5.00
2022-11-08T05:03:37.530Z,5.25
2022-11-08T05:06:10.846Z,5.13
2022-11-08T05:08:38.061Z,5.00
2022-11-08T05:11:10.123Z,6.22
2022-11-08T05:13:37.245Z,3.88
2022-11-08T05:16:21.714Z,4.45
2022-11-08T05:18:48.891Z,4.72
2022-11-08T05:21:36.192Z,4.80
2022-11-08T05:24:04.529Z,5.85
2022-11-08T05:26:34.767Z,5.38
2022-11-08T05:29:01.722Z,5.90
2022-11-08T05:31:28.700Z,4.18
2022-11-08T05:33:55.577Z,4.18
2022-11-08T05:36:22.458Z,6.90
2022-11-08T05:38:49.299Z,5.25
2022-11-08T05:41:20.054Z,6.53
2022-11-08T05:43:51.318Z,5.80
2022-11-08T05:46:19.327Z,5.43
2022-11-08T05:48:47.011Z,4.40
2022-11-08T05:51:15.585Z,6.78
2022-11-08T05:53:43.182Z,5.68
2022-11-08T05:56:10.329Z,8.63
2022-11-08T05:58:37.726Z,4.15
2022-11-08T06:01:07.945Z,8.70
2022-11-08T06:03:35.285Z,6.38
2022-11-08T06:06:06.832Z,7.13
2022-11-08T06:08:33.745Z,6.55
2022-11-08T06:11:12.451Z,9.10
2022-11-08T06:13:40.134Z,7.63
2022-11-08T06:16:10.255Z,9.40
2022-11-08T06:18:38.320Z,11.40
2022-11-08T06:21:07.509Z,7.95
2022-11-08T06:23:34.463Z,7.65
2022-11-08T06:26:01.423Z,7.22
2022-11-08T06:28:28.615Z,9.07
2022-11-08T06:30:58.058Z,6.00
2022-11-08T06:33:25.416Z,5.95
2022-11-08T06:35:52.283Z,6.22
2022-11-08T06:38:19.288Z,6.93
2022-11-08T06:40:46.151Z,7.47
2022-11-08T06:43:19.121Z,6.95
2022-11-08T06:45:46.500Z,7.43
2022-11-08T06:48:13.335Z,6.25
2022-11-08T06:50:41.653Z,6.03
2022-11-08T06:53:10.711Z,7.13
2022-11-08T06:55:37.683Z,8.90
2022-11-08T06:58:06.039Z,7.90
2022-11-08T07:00:32.923Z,7.65
2022-11-08T07:03:01.687Z,7.57
2022-11-08T07:05:29.850Z,6.82
2022-11-08T07:08:00.823Z,8.25
2022-11-08T07:10:32.200Z,10.02
2022-11-08T07:13:01.738Z,12.88
2022-11-08T07:15:29.316Z,8.43
2022-11-08T07:18:07.079Z,11.00
2022-11-08T07:20:34.376Z,11.38
2022-11-08T07:23:01.352Z,8.85
2022-11-08T07:25:29.940Z,7.95
2022-11-08T07:28:02.600Z,9.70
2022-11-08T07:30:29.648Z,9.20
2022-11-08T07:32:57.176Z,8.57
2022-11-08T07:35:26.113Z,9.25
2022-11-08T07:37:53.109Z,11.75
2022-11-08T07:40:20.221Z,5.95
2022-11-08T07:43:10.715Z,6.82
2022-11-08T07:45:33.919Z,8.32
2022-11-08T07:48:05.518Z,7.90
2022-11-08T07:50:36.650Z,7.45
2022-11-08T07:53:03.601Z,8.48
2022-11-08T07:55:30.458Z,8.18
2022-11-08T07:58:03.694Z,8.40
2022-11-08T08:00:31.765Z,8.15
2022-11-08T08:03:02.787Z,8.43
2022-11-08T08:05:35.862Z,11.68
2022-11-08T08:08:03.917Z,8.45
2022-11-08T08:10:31.802Z,7.85
2022-11-08T08:12:58.911Z,8.68
2022-11-08T08:15:26.191Z,9.00
2022-11-08T08:17:53.544Z,9.98
2022-11-08T08:20:20.479Z,6.60
2022-11-08T08:22:51.790Z,8.60
2022-11-08T08:25:19.066Z,7.97
2022-11-08T08:27:54.490Z,8.13
2022-11-08T08:30:22.348Z,7.32
2022-11-08T08:33:02.388Z,8.00
2022-11-08T08:35:36.277Z,9.82
2022-11-08T08:38:04.614Z,11.27
2022-11-08T08:40:32.666Z,7.32
2022-11-08T08:43:01.052Z,6.68
2022-11-08T08:45:28.248Z,7.03
2022-11-08T08:47:56.365Z,7.15
2022-11-08T08:50:24.231Z,7.70
2022-11-08T08:52:51.142Z,5.75
2022-11-08T08:55:18.437Z,6.13
2022-11-08T08:57:46.723Z,6.85
2022-11-08T09:03:07.132Z,5.70
2022-11-08T09:05:34.732Z,4.97
2022-11-08T09:08:01.766Z,4.25
2022-11-08T09:10:28.895Z,5.15
2022-11-08T09:12:56.044Z,6.25
2022-11-08T09:15:22.994Z,4.93
2022-11-08T09:17:49.823Z,5.35
2022-11-08T09:20:16.650Z,3.97
2022-11-08T09:22:43.512Z,4.18
2022-11-08T09:25:10.565Z,3.85
2022-11-08T09:27:37.404Z,4.40
2022-11-08T09:30:05.294Z,3.13
2022-11-08T09:32:46.552Z,5.00
2022-11-08T09:35:19.301Z,5.20
2022-11-08T09:37:49.647Z,4.70
2022-11-08T09:40:37.664Z,4.43
2022-11-08T09:43:35.615Z,3.70
2022-11-08T09:46:02.444Z,3.25
2022-11-08T09:48:35.198Z,3.42
2022-11-08T09:51:10.328Z,4.38
2022-11-08T09:53:52.386Z,5.82
2022-11-08T09:56:24.914Z,4.57
2022-11-08T09:59:04.992Z,5.68
2022-11-08T10:01:34.659Z,5.50
2022-11-08T10:04:18.272Z,3.33
2022-11-08T10:07:02.194Z,2.72
2022-11-08T10:09:48.050Z,3.92
2022-11-08T10:12:35.919Z,3.03
2022-11-08T10:15:29.043Z,2.15
2022-11-08T10:18:20.153Z,3.63
2022-11-08T10:21:24.488Z,4.00
2022-11-08T10:24:04.533Z,5.05
2022-11-08T10:26:37.732Z,4.43
2022-11-08T10:29:14.086Z,3.80
2022-11-08T10:31:42.916Z,5.35
2022-11-08T10:34:22.653Z,4.63
2022-11-08T10:36:52.435Z,4.85
2022-11-08T10:39:24.249Z,4.80
2022-11-08T10:42:17.048Z,5.28
2022-11-08T10:44:44.207Z,4.45
2022-11-08T10:47:29.548Z,8.07
2022-11-08T10:50:02.457Z,3.65
2022-11-08T10:53:01.968Z,4.82
2022-11-08T10:55:38.406Z,5.70
2022-11-08T10:58:31.341Z,5.35
2022-11-08T11:01:05.818Z,4.78
2022-11-08T11:03:33.374Z,4.60
2022-11-08T11:06:00.362Z,6.15
2022-11-08T11:08:27.988Z,5.35
2022-11-08T11:10:55.218Z,4.03
2022-11-08T11:15:55.938Z,6.85
2022-11-08T11:18:34.405Z,5.20
2022-11-08T11:21:07.860Z,4.55
2022-11-08T11:23:39.761Z,6.90
2022-11-08T11:26:16.035Z,6.07
2022-11-08T11:29:05.838Z,3.20
2022-11-08T11:31:36.766Z,3.53
2022-11-08T11:34:19.004Z,4.03
2022-11-08T11:36:57.889Z,4.63
2022-11-08T11:39:31.643Z,7.43
2022-11-08T11:42:23.979Z,5.22
2022-11-08T11:45:06.531Z,6.78
2022-11-08T11:50:31.233Z,6.13
2022-11-08T11:53:00.149Z,3.40
2022-11-08T11:56:05.460Z,5.68
2022-11-08T11:58:54.367Z,4.05
2022-11-08T12:01:49.522Z,2.13
2022-11-08T12:04:41.323Z,2.70
2022-11-08T12:07:20.238Z,2.35
2022-11-08T12:10:12.239Z,2.28
2022-11-08T12:12:57.144Z,4.35
2022-11-08T12:15:45.259Z,2.80
2022-11-08T12:18:57.117Z,3.83
2022-11-08T12:21:33.004Z,3.35
2022-11-08T12:24:23.133Z,3.22
2022-11-08T12:27:16.666Z,4.22
2022-11-08T12:30:04.250Z,4.38
2022-11-08T12:32:43.048Z,5.15
2022-11-08T12:35:22.294Z,5.07
2022-11-08T12:37:58.210Z,4.85
2022-11-08T12:40:45.573Z,4.72
2022-11-08T12:43:12.389Z,4.88
2022-11-08T12:45:57.248Z,5.15
2022-11-08T12:48:34.120Z,4.32
2022-11-08T12:51:23.485Z,4.47
2022-11-08T12:54:11.554Z,3.85
2022-11-08T12:56:42.977Z,5.57
2022-11-08T12:59:37.086Z,4.63
2022-11-08T13:02:05.707Z,4.22
2022-11-08T13:04:35.338Z,4.35
2022-11-08T13:07:23.822Z,4.88
2022-11-08T13:10:17.564Z,2.88
2022-11-08T13:13:19.822Z,3.05
2022-11-08T13:16:08.887Z,4.43
2022-11-08T13:18:43.613Z,4.10
2022-11-08T13:21:29.028Z,4.32
2022-11-08T13:24:06.770Z,3.72
2022-11-08T13:26:43.254Z,5.20
2022-11-08T13:29:15.981Z,3.05
2022-11-08T13:31:57.766Z,4.05
2022-11-08T13:35:06.867Z,2.80
2022-11-08T13:38:14.102Z,2.60
2022-11-08T13:41:01.873Z,2.63
2022-11-08T13:43:31.366Z,2.45
2022-11-08T13:46:19.828Z,4.15
2022-11-08T13:49:01.951Z,2.67
2022-11-08T13:51:30.197Z,2.88
2022-11-08T13:54:16.653Z,4.00
2022-11-08T13:56:47.520Z,2.95
2022-11-08T14:01:45.382Z,4.28
2022-11-08T14:04:27.164Z,3.03
2022-11-08T14:07:12.821Z,2.50
2022-11-08T14:10:04.497Z,2.83
2022-11-08T14:12:42.340Z,2.63
2022-11-08T14:15:38.524Z,3.20
2022-11-08T14:18:26.419Z,4.90
2022-11-08T14:20:54.883Z,2.47
2022-11-08T14:23:30.994Z,1.13
2022-11-08T14:26:04.309Z,2.88
2022-11-08T14:28:41.609Z,2.72
2022-11-08T14:31:31.150Z,1.95
2022-11-08T14:33:59.398Z,3.92
2022-11-08T14:36:28.362Z,1.90
2022-11-08T14:39:17.507Z,2.30
2022-11-08T14:41:51.743Z,2.45
2022-11-08T14:44:19.042Z,3.03
2022-11-08T14:46:46.148Z,2.17
2022-11-08T14:49:23.402Z,3.13
2022-11-08T14:52:22.551Z,1.88
2022-11-08T14:55:04.194Z,3.10
2022-11-08T14:57:36.241Z,2.13
2022-11-08T15:00:29.501Z,2.35
2022-11-08T15:03:03.197Z,2.25
2022-11-08T15:05:35.735Z,1.95
2022-11-08T15:08:05.662Z,3.50
2022-11-08T15:10:32.663Z,2.92
2022-11-08T15:12:59.825Z,1.67
2022-11-08T15:15:34.287Z,3.28
2022-11-08T15:18:13.487Z,2.75
2022-11-08T15:20:54.309Z,1.70
2022-11-08T15:23:44.263Z,2.88
2022-11-08T15:26:21.916Z,2.47
2022-11-08T15:29:13.506Z,3.40
2022-11-08T15:31:48.784Z,11.50
2022-11-08T15:34:22.459Z,11.40
2022-11-08T15:36:50.539Z,5.20
2022-11-08T15:39:28.473Z,3.97
2022-11-08T15:42:00.674Z,4.15
2022-11-08T15:44:28.137Z,2.50
2022-11-08T15:46:56.085Z,3.90
2022-11-08T15:49:28.624Z,3.90
2022-11-08T15:52:00.917Z,1.55
2022-11-08T15:54:27.720Z,3.15
2022-11-08T15:56:56.571Z,2.30
2022-11-08T15:59:27.710Z,3.40
2022-11-08T16:02:02.622Z,5.43
2022-11-08T16:04:30.020Z,4.22
2022-11-08T16:06:57.789Z,4.07
2022-11-08T16:09:24.710Z,3.38
2022-11-08T16:11:51.968Z,3.78
2022-11-08T16:14:22.730Z,5.32
2022-11-08T16:16:49.884Z,6.85
2022-11-08T16:19:24.883Z,8.27
2022-11-08T16:21:52.450Z,6.35
2022-11-08T16:24:19.581Z,9.20
2022-11-08T16:26:47.810Z,8.32
2022-11-08T16:29:23.321Z,8.13
2022-11-08T16:31:51.082Z,9.93
2022-11-08T16:34:18.286Z,11.63
2022-11-08T16:36:46.941Z,9.75
2022-11-08T16:39:19.375Z,14.45
2022-11-08T16:41:46.272Z,15.05
2022-11-08T16:44:13.323Z,10.30
2022-11-08T16:46:40.974Z,11.50
2022-11-08T16:49:20.408Z,9.95
2022-11-08T16:51:47.733Z,12.23
2022-11-08T16:54:19.599Z,11.07
2022-11-08T16:56:46.451Z,14.25
2022-11-08T16:59:13.321Z,8.50
2022-11-08T17:01:40.703Z,11.93
2022-11-08T17:04:07.594Z,8.68
2022-11-08T17:06:34.467Z,15.18
2022-11-08T17:09:01.277Z,13.23
2022-11-08T17:11:28.096Z,10.30
2022-11-08T17:13:55.322Z,12.45
2022-11-08T17:16:22.249Z,10.75
2022-11-08T17:18:53.010Z,10.48
2022-11-08T17:21:43.674Z,9.88
2022-11-08T17:24:07.983Z,9.98
2022-11-08T17:26:34.835Z,12.38
2022-11-08T17:29:01.584Z,8.70
2022-11-08T17:31:28.432Z,11.18
2022-11-08T17:33:56.033Z,15.98
2022-11-08T17:36:23.304Z,15.10
2022-11-08T17:38:50.138Z,15.30
2022-11-08T17:41:17.340Z,15.18
2022-11-08T17:43:44.537Z,11.75
2022-11-08T17:46:11.708Z,14.23
2022-11-08T17:48:39.806Z,14.07
2022-11-08T17:51:07.235Z,12.85
2022-11-08T17:53:35.439Z,14.45
2022-11-08T17:56:04.754Z,19.63
2022-11-08T17:58:33.914Z,28.70
2022-11-08T18:01:03.839Z,29.90
2022-11-08T18:03:31.585Z,28.05
2022-11-08T18:06:04.313Z,19.73
2022-11-08T18:08:32.639Z,13.43
2022-11-08T18:11:00.216Z,13.75
2022-11-08T18:13:28.805Z,11.55
2022-11-08T18:15:56.087Z,19.85
2022-11-08T18:18:22.877Z,19.70
2022-11-08T18:20:54.393Z,17.80
2022-11-08T18:23:22.232Z,18.15
2022-11-08T18:25:50.274Z,13.93
2022-11-08T18:28:17.172Z,30.50
2022-11-08T18:30:47.749Z,25.15
2022-11-08T18:33:16.111Z,22.55
2022-11-08T18:35:43.544Z,21.45
2022-11-08T18:38:14.389Z,20.77
2022-11-08T18:40:45.600Z,21.10
2022-11-08T18:43:12.443Z,20.33
2022-11-08T18:45:39.281Z,30.13
2022-11-08T18:48:06.313Z,26.42
2022-11-08T18:50:33.346Z,20.33
2022-11-08T18:53:03.716Z,21.38
2022-11-08T18:55:31.691Z,17.85
2022-11-08T18:58:01.755Z,17.98
2022-11-08T19:00:28.695Z,17.38
2022-11-08T19:02:55.470Z,15.98
2022-11-08T19:05:22.506Z,17.23
2022-11-08T19:07:49.369Z,16.55
2022-11-08T19:10:16.388Z,14.02
2022-11-08T19:12:43.292Z,12.68
2022-11-08T19:15:10.560Z,14.43
2022-11-08T19:17:37.577Z,15.48
2022-11-08T19:20:04.966Z,16.08
2022-11-08T19:22:32.072Z,18.17
2022-11-08T19:24:59.033Z,13.80
2022-11-08T19:27:25.912Z,13.63
2022-11-08T19:29:52.760Z,15.15
2022-11-08T19:32:19.611Z,15.25
2022-11-08T19:34:47.182Z,13.35
2022-11-08T19:37:14.070Z,16.42
2022-11-08T19:39:41.036Z,15.43
2022-11-08T19:42:07.873Z,15.02
2022-11-08T19:44:34.681Z,15.63
2022-11-08T19:47:02.017Z,15.73
2022-11-08T19:49:28.816Z,16.00
2022-11-08T19:51:55.661Z,17.08
2022-11-08T19:54:22.560Z,16.85
2022-11-08T19:57:04.165Z,14.85
2022-11-08T19:59:31.874Z,24.23
2022-11-08T20:02:00.005Z,11.68
2022-11-08T20:04:27.087Z,15.85
2022-11-08T20:06:53.998Z,12.35
2022-11-08T20:09:24.634Z,13.98
2022-11-08T20:11:54.951Z,12.75
2022-11-08T20:14:21.817Z,16.38
2022-11-08T20:16:53.233Z,12.82
2022-11-08T20:19:21.329Z,11.18
2022-11-08T20:21:48.280Z,14.73
2022-11-08T20:24:16.209Z,11.27
2022-11-08T20:26:43.547Z,11.93
2022-11-08T20:29:10.683Z,13.02
2022-11-08T20:31:38.802Z,15.75
2022-11-08T20:34:09.817Z,13.73
2022-11-08T20:36:37.870Z,16.25
2022-11-08T20:39:08.262Z,16.02
2022-11-08T20:41:37.482Z,26.70
2022-11-08T20:44:05.459Z,35.67
2022-11-08T20:46:33.224Z,27.80
2022-11-08T20:49:01.450Z,19.02
2022-11-08T20:51:30.485Z,13.27
2022-11-08T20:53:58.797Z,9.60
2022-11-08T20:56:27.350Z,10.60
2022-11-08T20:58:54.240Z,10.70
2022-11-08T21:01:23.297Z,11.23
2022-11-08T21:03:51.216Z,13.00
2022-11-08T21:06:22.039Z,13.85
2022-11-08T21:08:59.183Z,15.00
2022-11-08T21:11:27.693Z,15.32
2022-11-08T21:13:54.605Z,16.23
2022-11-08T21:16:30.971Z,13.40
2022-11-08T21:19:00.310Z,13.43
2022-11-08T21:21:27.487Z,9.80
2022-11-08T21:23:54.896Z,17.25
2022-11-08T21:26:22.455Z,16.42
2022-11-08T21:28:49.421Z,24.48
2022-11-08T21:31:16.719Z,26.65
2022-11-08T21:33:43.895Z,15.82
2022-11-08T21:36:11.392Z,17.75
2022-11-08T21:38:39.630Z,13.90
2022-11-08T21:41:09.214Z,10.38
2022-11-08T21:43:45.298Z,10.27
2022-11-08T21:46:33.797Z,8.98
2022-11-08T21:49:02.037Z,9.98
2022-11-08T21:51:30.198Z,11.73
2022-11-08T21:53:58.988Z,8.73
2022-11-08T21:56:29.981Z,8.13
2022-11-08T21:58:57.305Z,10.43
2022-11-08T22:01:29.861Z,10.13
2022-11-08T22:03:57.986Z,10.77
2022-11-08T22:06:24.877Z,10.38
2022-11-08T22:08:51.742Z,13.45
2022-11-08T22:11:18.938Z,18.15
2022-11-08T22:13:45.871Z,15.73
2022-11-08T22:16:12.922Z,12.05
2022-11-08T22:21:39.365Z,15.73
2022-11-08T22:24:08.606Z,17.13
2022-11-08T22:26:35.888Z,12.23
2022-11-08T22:29:03.506Z,11.48
2022-11-08T22:31:30.960Z,8.50
2022-11-08T22:33:57.956Z,6.85
2022-11-08T22:36:24.835Z,7.22
2022-11-08T22:38:51.692Z,11.75
2022-11-08T22:41:20.523Z,13.90
2022-11-08T22:43:47.825Z,10.10
2022-11-08T22:46:15.067Z,11.73
2022-11-08T22:48:42.052Z,8.02
2022-11-08T22:51:09.413Z,7.90
2022-11-08T22:53:36.328Z,6.80
2022-11-08T22:56:08.290Z,7.85
2022-11-08T22:58:38.198Z,7.47
2022-11-08T23:01:05.400Z,8.65
2022-11-08T23:03:32.306Z,7.88
2022-11-08T23:05:59.228Z,6.95
2022-11-08T23:08:26.958Z,6.55
2022-11-08T23:11:13.256Z,6.97
2022-11-08T23:13:59.001Z,6.43
2022-11-08T23:16:32.192Z,6.00
2022-11-08T23:19:18.598Z,9.45
2022-11-08T23:22:03.921Z,7.53
2022-11-08T23:24:31.702Z,6.68
2022-11-08T23:27:32.246Z,5.95
2022-11-08T23:30:17.908Z,8.35
2022-11-08T23:32:48.875Z,6.32
2022-11-08T23:35:17.376Z,6.25
2022-11-08T23:37:44.631Z,9.32
2022-11-08T23:40:31.584Z,7.55
2022-11-08T23:43:37.570Z,7.10
2022-11-08T23:46:10.189Z,7.30
2022-11-08T23:48:38.070Z,6.57
2022-11-08T23:51:05.596Z,8.43
2022-11-08T23:53:34.134Z,7.13
2022-11-08T23:56:00.995Z,7.68
2022-11-08T23:58:27.861Z,6.68
